EDDF/FRA METAR and TAF weather

Enter ICAO airport designator
Station Type Date Time Source
EDDF METAR 2019/10/16 18:50 UTC NOAA

EDDF 161850Z 19007KT CAVOK 15/10 Q1012 NOSIG


Station Type Date Time Source
EDDF Decoded METAR 2019/10/16 18:50 UTC NOAA

Frankfurt / M-Flughafen, Germany (EDDF) 50-03N 008-36E 113M
Oct 16, 2019 - 02:50 PM EDT / 2019.10.16 1850 UTC
Wind: from the S (190 degrees) at 8 MPH (7 KT):0
Visibility: greater than 7 mile(s):0
Temperature: 59 F (15 C)
Dew Point: 50 F (10 C)
Relative Humidity: 72%
Pressure (altimeter): 29.88 in. Hg (1012 hPa)
ob: EDDF 161850Z 19007KT CAVOK 15/10 Q1012 NOSIG
cycle: 19

Station Type Date Time Source
EDDF TAF 2019/10/16 18:28 UTC NOAA

TAF EDDF 161700Z 1618/1724 18004KT 9999 SCT030
BECMG 1621/1623 BKN040
TEMPO 1622/1708 4000 RA BKN012
BECMG 1703/1705 20009KT
TEMPO 1716/1721 23015G25KT 4500 SHRA BKN008 SCT015TCU

Example: see airport list